Time;durP1;ratioP1;P1;durP2;ratioP2;P2;SDS_P1;SDS_P2;PMS_P1;PMS_P2;Temp;Humidity;BMP_temperature;BMP_pressure;BME280_temperature;BME280_humidity;BME280_pressure;Samples;Min_cycle;Max_cycle;Signal;HPM_P1;HPM_P2
2023/04/27 00:01:12;;;;;;;5.23;3.50;;;;;;;12.19;nan;99571.31;5005334;28;20536;-80
2023/04/27 00:03:38;;;;;;;3.70;3.40;;;;;;;12.17;nan;99568.78;5004708;28;20293;-80
2023/04/27 00:06:03;;;;;;;4.40;3.20;;;;;;;12.09;nan;99563.22;4985030;28;20268;-80
2023/04/27 00:08:29;;;;;;;3.80;3.50;;;;;;;11.99;nan;99564.84;4998083;28;20262;-80
2023/04/27 00:10:55;;;;;;;3.60;3.17;;;;;;;11.91;nan;99567.19;5000907;28;20203;-80
2023/04/27 00:13:21;;;;;;;3.60;3.30;;;;;;;11.85;nan;99562.28;5002036;28;20249;-80
2023/04/27 00:15:46;;;;;;;3.07;2.77;;;;;;;11.80;nan;99565.25;5006485;28;20611;-80
2023/04/27 00:18:12;;;;;;;4.83;2.90;;;;;;;11.76;nan;99558.50;5003784;28;20207;-80
2023/04/27 00:20:37;;;;;;;3.20;2.50;;;;;;;11.75;nan;99562.09;5004813;28;20218;-80
2023/04/27 00:23:02;;;;;;;2.70;2.50;;;;;;;11.76;nan;99560.31;5006656;28;20218;-80
2023/04/27 00:25:28;;;;;;;3.97;3.50;;;;;;;11.72;nan;99557.88;5004625;28;20222;-80
2023/04/27 00:27:53;;;;;;;4.43;4.03;;;;;;;11.69;nan;99558.09;5004663;28;20288;-80
2023/04/27 00:30:19;;;;;;;3.30;3.00;;;;;;;11.67;nan;99548.63;5005623;28;20369;-80
2023/04/27 00:32:44;;;;;;;3.70;3.00;;;;;;;11.65;nan;99553.16;5008732;28;20214;-80
2023/04/27 00:35:10;;;;;;;3.73;3.43;;;;;;;11.63;nan;99541.88;5004948;28;20203;-80
2023/04/27 00:37:35;;;;;;;3.33;3.00;;;;;;;11.59;nan;99541.25;5010159;28;20211;-80
2023/04/27 00:40:03;;;;;;;4.68;2.33;;;;;;;11.58;nan;99536.94;5006961;28;20536;-80
2023/04/27 00:42:29;;;;;;;3.55;3.00;;;;;;;11.60;nan;99553.47;5008329;28;20309;-80
2023/04/27 00:44:57;;;;;;;3.40;3.10;;;;;;;11.65;nan;99542.63;4998736;28;20529;-80
2023/04/27 00:47:23;;;;;;;3.10;2.50;;;;;;;11.69;nan;99541.44;5002231;28;21218;-80
2023/04/27 00:49:49;;;;;;;3.45;3.15;;;;;;;11.71;nan;99545.66;5000221;28;20203;-80
2023/04/27 00:52:14;;;;;;;4.27;3.40;;;;;;;11.73;nan;99551.66;5003458;28;20260;-80
2023/04/27 00:54:41;;;;;;;3.35;3.00;;;;;;;11.77;nan;99541.75;4979486;28;20348;-80
2023/04/27 00:57:06;;;;;;;3.90;3.20;;;;;;;11.78;nan;99553.16;4981783;28;20215;-80
2023/04/27 00:59:32;;;;;;;5.37;3.23;;;;;;;11.76;nan;99557.66;4998514;28;20274;-80
2023/04/27 01:01:58;;;;;;;3.40;3.07;;;;;;;11.73;nan;99551.66;4981560;28;20203;-80
2023/04/27 01:04:24;;;;;;;5.23;4.13;;;;;;;11.74;nan;99555.13;4979045;28;20461;-80
2023/04/27 01:06:50;;;;;;;4.70;3.30;;;;;;;11.74;nan;99548.06;4982037;28;20476;-80
2023/04/27 01:09:18;;;;;;;4.20;3.00;;;;;;;11.76;nan;99553.25;5021327;23;20235;-82
2023/04/27 01:11:44;;;;;;;4.32;2.80;;;;;;;11.78;nan;99555.78;4968429;28;21057;-82
2023/04/27 01:14:10;;;;;;;4.55;3.30;;;;;;;11.79;nan;99558.28;4982642;28;20260;-83
2023/04/27 01:16:36;;;;;;;3.93;3.47;;;;;;;11.83;nan;99561.56;4987862;28;21105;-81
2023/04/27 01:19:01;;;;;;;3.60;3.00;;;;;;;11.83;nan;99562.41;4979350;28;20296;-83
2023/04/27 01:21:27;;;;;;;3.10;2.90;;;;;;;11.82;nan;99557.25;4972603;28;20209;-82
2023/04/27 01:23:53;;;;;;;2.83;2.40;;;;;;;11.80;nan;99559.13;4975290;28;20246;-82
2023/04/27 01:26:19;;;;;;;3.33;2.70;;;;;;;11.82;nan;99567.75;4975691;28;20639;-82
2023/04/27 01:28:44;;;;;;;3.33;3.00;;;;;;;11.81;nan;99563.47;4973906;28;20228;-83
2023/04/27 01:31:10;;;;;;;4.00;3.00;;;;;;;11.80;nan;99567.88;4976110;28;20736;-82
2023/04/27 01:33:36;;;;;;;3.80;3.03;;;;;;;11.79;nan;99563.56;4976454;28;20226;-82
2023/04/27 01:36:02;;;;;;;4.97;2.80;;;;;;;11.78;nan;99555.78;4975748;28;20597;-82
2023/04/27 01:38:28;;;;;;;3.70;3.00;;;;;;;11.74;nan;99555.97;4975448;28;20282;-81
2023/04/27 01:40:54;;;;;;;5.10;2.80;;;;;;;11.69;nan;99555.47;4973882;28;20455;-83
2023/04/27 01:43:20;;;;;;;4.05;3.65;;;;;;;11.69;nan;99552.84;4973619;28;20224;-82
2023/04/27 01:45:47;;;;;;;3.87;2.77;;;;;;;11.69;nan;99552.84;4974481;28;20203;-82
2023/04/27 01:48:12;;;;;;;3.47;2.83;;;;;;;11.69;nan;99560.75;4971311;28;20685;-83
2023/04/27 01:50:38;;;;;;;4.40;3.00;;;;;;;11.67;nan;99554.72;4972627;28;20743;-82
2023/04/27 01:53:05;;;;;;;3.50;2.97;;;;;;;11.57;nan;99558.09;4974316;28;20462;-83
2023/04/27 01:55:30;;;;;;;5.00;3.57;;;;;;;11.51;nan;99551.47;4971855;28;20200;-83
2023/04/27 01:57:56;;;;;;;5.53;3.08;;;;;;;11.50;nan;99555.03;4968337;28;21190;-82
2023/04/27 02:00:22;;;;;;;5.00;3.00;;;;;;;11.49;nan;99561.25;4973179;28;20204;-82
2023/04/27 02:02:49;;;;;;;4.30;3.23;;;;;;;11.51;nan;99556.72;4973768;28;20246;-82
2023/04/27 02:05:15;;;;;;;3.70;3.20;;;;;;;11.53;nan;99557.47;4987234;28;20267;-82
2023/04/27 02:07:40;;;;;;;3.77;2.50;;;;;;;11.57;nan;99563.34;4970038;28;20220;-82
2023/04/27 02:10:06;;;;;;;4.40;3.40;;;;;;;11.57;nan;99561.56;4968219;28;20480;-82
2023/04/27 02:12:32;;;;;;;3.50;3.20;;;;;;;11.55;nan;99560.81;4974622;28;20774;-82
2023/04/27 02:14:58;;;;;;;4.30;3.10;;;;;;;11.56;nan;99565.16;4970802;28;20207;-81
2023/04/27 02:17:23;;;;;;;4.50;2.73;;;;;;;11.60;nan;99563.97;4971249;28;20196;-83
2023/04/27 02:19:49;;;;;;;3.60;3.20;;;;;;;11.60;nan;99563.97;4970323;28;20239;-82
2023/04/27 02:22:15;;;;;;;3.27;2.97;;;;;;;11.58;nan;99568.50;4973531;28;20200;-83
2023/04/27 02:24:40;;;;;;;5.75;2.97;;;;;;;11.59;nan;99564.94;4970584;28;20268;-82
2023/04/27 02:27:06;;;;;;;4.70;4.10;;;;;;;11.59;nan;99561.47;4969495;28;20209;-82
2023/04/27 02:29:32;;;;;;;4.40;3.53;;;;;;;11.57;nan;99561.56;4971017;28;20573;-82
2023/04/27 02:31:57;;;;;;;7.20;2.87;;;;;;;11.55;nan;99566.06;4971710;28;20443;-81
2023/04/27 02:34:22;;;;;;;6.00;3.60;;;;;;;11.55;nan;99566.06;4972012;28;20215;-82
2023/04/27 02:36:48;;;;;;;3.33;3.00;;;;;;;11.54;nan;99572.31;4973358;28;20268;-82
2023/04/27 02:39:13;;;;;;;3.30;3.03;;;;;;;11.52;nan;99572.38;4969632;28;20259;-82
2023/04/27 02:41:38;;;;;;;5.07;3.40;;;;;;;11.52;nan;99571.56;4973134;28;20202;-82
2023/04/27 02:44:04;;;;;;;5.93;4.30;;;;;;;11.55;nan;99573.13;4968862;28;20215;-81
2023/04/27 02:46:29;;;;;;;5.43;3.60;;;;;;;11.54;nan;99576.72;4970042;28;20199;-82
2023/04/27 02:48:55;;;;;;;4.50;3.50;;;;;;;11.48;nan;99570.09;4966808;28;20208;-81
2023/04/27 02:51:22;;;;;;;3.92;3.25;;;;;;;11.45;nan;99565.00;4971556;28;20208;-83
2023/04/27 02:53:47;;;;;;;5.77;3.17;;;;;;;11.44;nan;99568.59;4973059;28;20188;-82
2023/04/27 02:56:12;;;;;;;3.37;2.87;;;;;;;11.44;nan;99576.50;4971881;28;20587;-82
2023/04/27 02:58:38;;;;;;;4.20;3.43;;;;;;;11.43;nan;99575.66;4982622;28;20278;-83
2023/04/27 03:01:03;;;;;;;4.73;4.20;;;;;;;11.38;nan;99579.53;4968465;28;20288;-82
2023/04/27 03:03:29;;;;;;;5.20;3.03;;;;;;;11.33;nan;99571.13;4974288;28;20255;-83
2023/04/27 03:05:54;;;;;;;4.23;3.83;;;;;;;11.30;nan;99575.63;4970589;28;20627;-82
2023/04/27 03:08:20;;;;;;;4.40;3.03;;;;;;;11.27;nan;99573.22;4970811;28;20801;-83
2023/04/27 03:10:45;;;;;;;3.90;3.50;;;;;;;11.25;nan;99572.47;4957562;28;20205;-82
2023/04/27 03:13:10;;;;;;;5.90;3.50;;;;;;;11.24;nan;99567.34;4936773;28;20765;-82
2023/04/27 03:15:36;;;;;;;4.27;3.87;;;;;;;11.25;nan;99575.09;4944433;28;20205;-82
2023/04/27 03:18:01;;;;;;;7.00;3.17;;;;;;;11.30;nan;99578.25;4960334;28;20533;-82
2023/04/27 03:20:27;;;;;;;6.23;3.50;;;;;;;11.35;nan;99574.50;4955044;28;20205;-81
2023/04/27 03:22:52;;;;;;;3.67;2.97;;;;;;;11.39;nan;99571.53;4959412;28;20261;-81
2023/04/27 03:25:18;;;;;;;3.60;3.30;;;;;;;11.43;nan;99577.44;4952153;28;20209;-82
2023/04/27 03:27:43;;;;;;;4.17;3.17;;;;;;;11.45;nan;99571.16;4938974;28;20287;-83
2023/04/27 03:30:10;;;;;;;7.28;3.20;;;;;;;11.45;nan;99571.16;4957802;28;20212;-82
2023/04/27 03:32:36;;;;;;;4.10;3.70;;;;;;;11.48;nan;99575.34;4941270;28;20653;-82
2023/04/27 03:35:02;;;;;;;4.83;3.87;;;;;;;11.50;nan;99576.06;4940038;28;20423;-83
2023/04/27 03:37:27;;;;;;;7.60;3.30;;;;;;;11.48;nan;99576.19;4957374;28;20201;-82
2023/04/27 03:39:52;;;;;;;4.10;3.37;;;;;;;11.45;nan;99571.16;4946351;28;20821;-83
2023/04/27 03:42:18;;;;;;;3.90;3.10;;;;;;;11.44;nan;99572.06;4932405;28;20212;-82
2023/04/27 03:44:43;;;;;;;8.00;3.00;;;;;;;11.46;nan;99583.34;4952506;28;20282;-83
2023/04/27 03:47:09;;;;;;;3.77;3.20;;;;;;;11.47;nan;99578.91;4931174;28;20613;-83
2023/04/27 03:49:37;;;;;;;3.92;3.30;;;;;;;11.47;nan;99577.13;4934016;28;20212;-83
2023/04/27 03:52:03;;;;;;;4.03;2.67;;;;;;;11.47;nan;99578.91;4932533;28;20429;-82
2023/04/27 03:54:32;;;;;;;4.57;3.28;;;;;;;11.46;nan;99575.44;4949302;28;20188;-83
2023/04/27 03:56:57;;;;;;;4.63;3.00;;;;;;;11.43;nan;99583.53;4937778;28;20221;-82
2023/04/27 03:59:22;;;;;;;4.07;3.00;;;;;;;11.40;nan;99575.88;4932493;28;20236;-82
2023/04/27 04:01:48;;;;;;;4.23;3.83;;;;;;;11.41;nan;99579.34;4933317;28;20210;-82
2023/04/27 04:04:14;;;;;;;4.13;3.73;;;;;;;11.39;nan;99581.22;4945904;28;20515;-83
2023/04/27 04:06:40;;;;;;;4.38;3.80;;;;;;;11.33;nan;99579.00;4932821;28;20188;-81
2023/04/27 04:09:06;;;;;;;6.10;3.30;;;;;;;11.25;nan;99571.63;4938300;28;20231;-82
2023/04/27 04:11:32;;;;;;;3.40;2.77;;;;;;;11.22;nan;99569.22;4959861;28;20700;-83
2023/04/27 04:13:58;;;;;;;3.15;2.95;;;;;;;11.19;nan;99575.50;4961001;28;20778;-82
2023/04/27 04:16:24;;;;;;;3.67;3.37;;;;;;;11.19;nan;99577.31;4961562;28;20430;-81
2023/04/27 04:18:51;;;;;;;4.07;3.33;;;;;;;11.19;nan;99575.50;4961505;28;20197;-83
2023/04/27 04:21:17;;;;;;;3.57;3.27;;;;;;;11.21;nan;99572.81;4968638;28;20403;-81
2023/04/27 04:23:42;;;;;;;5.90;3.73;;;;;;;11.22;nan;99570.06;4962883;28;20569;-82
2023/04/27 04:26:08;;;;;;;3.53;2.90;;;;;;;11.23;nan;99570.88;4982525;28;20247;-82
2023/04/27 04:28:34;;;;;;;3.55;3.03;;;;;;;11.28;nan;99571.41;4966003;28;20360;-82
2023/04/27 04:31:00;;;;;;;3.97;3.30;;;;;;;11.30;nan;99572.16;4967989;28;20303;-81
2023/04/27 04:33:26;;;;;;;3.90;3.53;;;;;;;11.30;nan;99567.75;4965473;28;20805;-82
2023/04/27 04:35:52;;;;;;;3.93;3.00;;;;;;;11.34;nan;99575.44;4968112;28;20208;-82
2023/04/27 04:38:17;;;;;;;4.22;3.60;;;;;;;11.35;nan;99574.50;4963401;28;20298;-81
2023/04/27 04:40:43;;;;;;;3.60;3.20;;;;;;;11.37;nan;99573.44;4959110;28;20205;-82
2023/04/27 04:43:09;;;;;;;3.90;3.50;;;;;;;11.37;nan;99567.31;4963762;28;20216;-83
2023/04/27 04:45:35;;;;;;;4.97;4.13;;;;;;;11.38;nan;99559.34;4961403;28;20192;-82
2023/04/27 04:48:00;;;;;;;4.40;3.27;;;;;;;11.41;nan;99563.56;4963853;28;20815;-83
2023/04/27 04:50:26;;;;;;;5.70;4.53;;;;;;;11.46;nan;99571.97;4980326;28;20219;-83
2023/04/27 04:52:51;;;;;;;5.23;4.00;;;;;;;11.47;nan;99571.03;4964577;28;20188;-84
2023/04/27 04:55:17;;;;;;;5.53;3.60;;;;;;;11.48;nan;99575.34;4965934;28;20629;-83
2023/04/27 04:57:44;;;;;;;6.10;4.00;;;;;;;11.49;nan;99569.97;4966586;28;20319;-82
2023/04/27 05:00:12;;;;;;;5.33;3.57;;;;;;;11.48;nan;99573.56;4968691;28;20231;-84
2023/04/27 05:02:41;;;;;;;3.60;3.00;;;;;;;11.49;nan;99579.66;4970188;28;20268;-82
2023/04/27 05:05:07;;;;;;;3.50;3.17;;;;;;;11.47;nan;99585.00;4970363;28;20268;-82
2023/04/27 05:07:33;;;;;;;3.45;3.15;;;;;;;11.45;nan;99583.44;4969215;28;20301;-82
2023/04/27 05:09:59;;;;;;;5.45;2.92;;;;;;;11.47;nan;99581.53;4969553;28;21114;-83
2023/04/27 05:12:25;;;;;;;2.80;2.60;;;;;;;11.49;nan;99588.38;4969720;28;20200;-82
2023/04/27 05:14:51;;;;;;;4.40;3.00;;;;;;;11.48;nan;99596.41;4965120;28;20196;-82
2023/04/27 05:17:16;;;;;;;4.17;3.33;;;;;;;11.42;nan;99599.41;4969426;28;20196;-82
2023/04/27 05:19:41;;;;;;;5.57;3.90;;;;;;;11.38;nan;99600.59;4965230;28;20449;-82
2023/04/27 05:22:07;;;;;;;4.30;3.90;;;;;;;11.35;nan;99596.38;4966179;28;20191;-83
2023/04/27 05:24:32;;;;;;;4.57;3.07;;;;;;;11.34;nan;99596.47;4968265;28;20268;-82
2023/04/27 05:26:58;;;;;;;4.40;3.77;;;;;;;11.34;nan;99607.84;4969040;28;20496;-82
2023/04/27 05:29:23;;;;;;;2.87;2.57;;;;;;;11.37;nan;99612.91;4964211;28;20277;-82
2023/04/27 05:31:49;;;;;;;4.20;3.80;;;;;;;11.42;nan;99607.31;4970087;28;20239;-82
2023/04/27 05:34:14;;;;;;;4.60;3.13;;;;;;;11.45;nan;99609.72;4952493;28;20176;-82
2023/04/27 05:36:40;;;;;;;3.97;3.57;;;;;;;11.47;nan;99615.72;4967548;28;20195;-81
2023/04/27 05:39:06;;;;;;;6.43;3.80;;;;;;;11.50;nan;99624.28;4968523;28;20243;-81
2023/04/27 05:41:31;;;;;;;6.33;3.87;;;;;;;11.57;nan;99616.81;4971906;28;20228;-81
2023/04/27 05:43:57;;;;;;;3.80;2.90;;;;;;;11.63;nan;99615.53;4974920;28;20446;-82
2023/04/27 05:46:22;;;;;;;5.03;3.50;;;;;;;11.68;nan;99616.91;4979676;28;20203;-82
2023/04/27 05:48:47;;;;;;;4.07;3.60;;;;;;;11.75;nan;99620.00;4967152;28;20443;-82
2023/04/27 05:51:13;;;;;;;5.60;4.60;;;;;;;11.81;nan;99624.81;4972481;28;20200;-82
2023/04/27 05:53:38;;;;;;;4.17;3.63;;;;;;;11.86;nan;99628.03;4974651;28;20196;-81
2023/04/27 05:56:05;;;;;;;4.63;4.10;;;;;;;11.93;nan;99631.91;4976506;28;20205;-82
2023/04/27 05:58:32;;;;;;;6.05;4.90;;;;;;;12.01;nan;99634.00;4953225;28;20216;-82
2023/04/27 06:00:59;;;;;;;6.03;4.03;;;;;;;12.07;nan;99644.13;4973232;28;20206;-82
2023/04/27 06:03:24;;;;;;;10.07;4.72;;;;;;;12.11;nan;99631.59;4973480;28;20219;-82
2023/04/27 06:05:54;;;;;;;5.60;4.50;;;;;;;12.15;nan;99640.94;4972543;28;20211;-82
2023/04/27 06:08:20;;;;;;;5.18;4.45;;;;;;;12.20;nan;99640.63;4969396;28;20201;-82
2023/04/27 06:10:45;;;;;;;6.30;4.63;;;;;;;12.27;nan;99639.25;4953245;28;20292;-81
2023/04/27 06:13:11;;;;;;;5.00;4.50;;;;;;;12.39;nan;99654.19;4948945;28;20203;-81
2023/04/27 06:15:36;;;;;;;7.20;4.80;;;;;;;12.54;nan;99661.00;4953066;28;20200;-82
2023/04/27 06:18:01;;;;;;;5.40;3.80;;;;;;;12.69;nan;99658.22;4948639;28;20296;-83
2023/04/27 06:20:27;;;;;;;4.40;4.00;;;;;;;12.82;nan;99659.03;4951185;28;20200;-83
2023/04/27 06:22:52;;;;;;;4.20;3.80;;;;;;;12.93;nan;99650.34;4953626;28;20476;-83
2023/04/27 06:25:18;;;;;;;6.40;4.50;;;;;;;13.01;nan;99643.56;4954034;28;20212;-84
2023/04/27 06:27:43;;;;;;;5.47;4.40;;;;;;;13.05;nan;99645.03;4952791;28;20608;-84
2023/04/27 06:30:09;;;;;;;3.70;3.40;;;;;;;13.38;nan;99640.03;4949124;28;20217;-82
2023/04/27 06:32:35;;;;;;;7.00;3.90;;;;;;;14.22;nan;99641.50;4942589;28;20476;-83
2023/04/27 06:35:00;;;;;;;4.13;3.73;;;;;;;14.95;nan;99647.22;4950831;28;20265;-82
2023/04/27 06:37:28;;;;;;;3.50;3.20;;;;;;;15.33;nan;99637.94;4950349;28;20326;-80
2023/04/27 06:39:56;;;;;;;6.38;3.65;;;;;;;15.75;nan;99638.00;4953345;28;20208;-80
2023/04/27 06:42:21;;;;;;;4.25;3.40;;;;;;;16.31;nan;99635.78;4957615;28;20497;-81
2023/04/27 06:44:47;;;;;;;5.57;3.90;;;;;;;17.15;nan;99630.13;4955839;28;20446;-81
2023/04/27 06:47:12;;;;;;;4.50;3.63;;;;;;;17.56;nan;99636.09;4958334;28;20450;-81
2023/04/27 06:49:38;;;;;;;4.00;3.50;;;;;;;17.95;nan;99629.91;4951800;28;20218;-81
2023/04/27 06:52:03;;;;;;;3.67;3.37;;;;;;;18.41;nan;99629.03;4949900;28;20752;-82
2023/04/27 06:54:29;;;;;;;7.97;3.90;;;;;;;18.63;nan;99625.13;4932869;29;20214;-79
2023/04/27 06:56:54;;;;;;;4.10;3.57;;;;;;;18.43;nan;99623.56;4943558;29;20242;-79
2023/04/27 06:59:20;;;;;;;3.23;2.70;;;;;;;18.04;nan;99637.88;4940944;29;20206;-78
2023/04/27 07:01:45;;;;;;;3.83;3.43;;;;;;;17.68;nan;99637.63;4940850;29;20614;-79
2023/04/27 07:04:11;;;;;;;3.97;3.53;;;;;;;17.47;nan;99637.81;4940743;29;20796;-79
2023/04/27 07:06:36;;;;;;;6.13;3.50;;;;;;;17.65;nan;99642.38;4938692;29;20182;-78
2023/04/27 07:09:04;;;;;;;4.20;3.80;;;;;;;18.10;nan;99633.78;4998342;23;20699;-85
2023/04/27 07:11:30;;;;;;;4.97;3.75;;;;;;;18.50;nan;99636.13;4969539;28;20298;-84
2023/04/27 07:13:55;;;;;;;4.10;3.70;;;;;;;18.94;nan;99624.84;4971675;28;20579;-86
2023/04/27 07:16:20;;;;;;;4.17;3.37;;;;;;;19.20;nan;99622.28;4985345;28;20377;-86
2023/04/27 07:18:46;;;;;;;6.63;4.00;;;;;;;19.63;nan;99612.59;4984565;28;20204;-85
2023/04/27 07:21:11;;;;;;;4.57;3.27;;;;;;;20.03;nan;99614.72;4983019;28;20270;-85
2023/04/27 07:23:39;;;;;;;4.87;4.37;;;;;;;20.33;nan;99617.88;4982055;28;20214;-84
2023/04/27 07:26:04;;;;;;;7.55;4.75;;;;;;;20.63;nan;99623.69;4984207;28;20527;-84
2023/04/27 07:28:30;;;;;;;5.03;4.37;;;;;;;20.94;nan;99616.75;4985039;28;20659;-86
2023/04/27 07:30:56;;;;;;;5.57;5.07;;;;;;;21.07;nan;99620.81;4985322;28;20292;-85
2023/04/27 07:33:22;;;;;;;7.03;4.70;;;;;;;20.55;nan;99621.84;4986287;28;20210;-85
2023/04/27 07:35:49;;;;;;;6.07;3.90;;;;;;;19.96;nan;99628.88;4985127;28;20790;-84
2023/04/27 07:38:16;;;;;;;8.10;4.90;;;;;;;19.63;nan;99615.25;4984669;28;20208;-84
2023/04/27 07:40:41;;;;;;;6.10;3.50;;;;;;;19.43;nan;99620.78;4987727;28;20480;-85
2023/04/27 07:43:08;;;;;;;4.00;3.70;;;;;;;19.21;nan;99615.94;4985660;28;21071;-84
2023/04/27 07:45:36;;;;;;;7.57;4.65;;;;;;;18.94;nan;99614.19;4987518;28;20243;-85
2023/04/27 07:48:03;;;;;;;4.05;3.38;;;;;;;18.76;nan;99612.31;4987602;28;20720;-84
2023/04/27 07:50:29;;;;;;;4.30;3.90;;;;;;;18.58;nan;99614.13;4989834;28;20235;-85
2023/04/27 07:52:55;;;;;;;6.93;5.90;;;;;;;18.62;nan;99615.47;4987226;28;20195;-85
2023/04/27 07:55:22;;;;;;;5.43;4.85;;;;;;;18.82;nan;99604.75;4985730;28;21133;-84
2023/04/27 07:57:51;;;;;;;5.97;3.78;;;;;;;18.91;nan;99615.31;4985915;28;20516;-85
2023/04/27 08:00:17;;;;;;;5.88;3.83;;;;;;;18.84;nan;99606.25;4985712;28;20220;-84
2023/04/27 08:02:43;;;;;;;5.05;4.25;;;;;;;18.65;nan;99609.84;4988069;28;20209;-85
2023/04/27 08:05:09;;;;;;;5.40;4.40;;;;;;;18.50;nan;99612.19;4987208;28;20446;-84
2023/04/27 08:07:34;;;;;;;5.97;3.63;;;;;;;18.78;nan;99614.84;4990495;28;20465;-85
2023/04/27 08:10:00;;;;;;;5.57;5.10;;;;;;;18.99;nan;99612.75;4989141;28;20356;-85
2023/04/27 08:12:26;;;;;;;6.37;4.37;;;;;;;18.99;nan;99614.56;4985318;28;20288;-84
2023/04/27 08:14:51;;;;;;;4.40;3.97;;;;;;;18.92;nan;99614.31;4984660;28;20461;-85
2023/04/27 08:17:17;;;;;;;4.93;4.07;;;;;;;19.13;nan;99618.53;4983889;28;20207;-85
2023/04/27 08:19:42;;;;;;;6.23;4.80;;;;;;;19.32;nan;99618.38;4981580;28;20248;-84
2023/04/27 08:22:08;;;;;;;4.33;3.93;;;;;;;19.36;nan;99619.75;4981713;28;20220;-85
2023/04/27 08:24:33;;;;;;;5.47;4.13;;;;;;;19.47;nan;99610.69;4985393;28;20297;-85
2023/04/27 08:26:59;;;;;;;7.80;4.50;;;;;;;19.54;nan;99609.03;4982426;28;20206;-85
2023/04/27 08:29:24;;;;;;;7.73;3.70;;;;;;;19.49;nan;99608.66;4986802;28;20655;-85
2023/04/27 08:31:49;;;;;;;6.10;4.70;;;;;;;19.38;nan;99603.59;4981091;28;22503;-85
2023/04/27 08:34:15;;;;;;;3.80;3.50;;;;;;;19.50;nan;99599.72;4991383;28;20671;-85
2023/04/27 08:36:40;;;;;;;6.50;4.77;;;;;;;19.71;nan;99599.34;4991934;28;20202;-84
2023/04/27 08:39:06;;;;;;;5.10;4.10;;;;;;;19.92;nan;99599.00;4987224;28;20264;-86
2023/04/27 08:41:32;;;;;;;5.23;3.97;;;;;;;20.19;nan;99597.13;4987468;28;20267;-87
2023/04/27 08:43:58;;;;;;;5.20;3.87;;;;;;;20.44;nan;99595.41;4990898;28;20639;-86
2023/04/27 08:46:26;;;;;;;5.43;4.30;;;;;;;20.59;nan;99590.31;4991725;28;20829;-86
2023/04/27 08:48:54;;;;;;;4.50;3.90;;;;;;;20.62;nan;99592.66;4991932;28;20336;-85
2023/04/27 08:51:21;;;;;;;6.03;5.43;;;;;;;20.63;nan;99591.66;4986849;28;20455;-85
2023/04/27 08:53:51;;;;;;;5.27;4.77;;;;;;;20.59;nan;99593.81;4993666;28;20527;-84
2023/04/27 08:56:26;;;;;;;4.97;4.43;;;;;;;20.50;nan;99586.78;4995849;28;20466;-84
2023/04/27 08:58:52;;;;;;;6.13;4.37;;;;;;;20.37;nan;99586.38;4994821;28;20461;-83
2023/04/27 09:01:20;;;;;;;6.03;4.47;;;;;;;20.37;nan;99586.38;4996068;28;20460;-85
2023/04/27 09:03:46;;;;;;;4.50;4.07;;;;;;;20.48;nan;99591.44;4996975;28;20500;-85
2023/04/27 09:06:15;;;;;;;12.83;5.40;;;;;;;20.40;nan;99594.91;4998015;28;21254;-84
2023/04/27 09:08:44;;;;;;;7.20;5.30;;;;;;;20.25;nan;99596.50;5001632;28;20208;-85
2023/04/27 09:11:10;;;;;;;4.90;3.63;;;;;;;20.08;nan;99598.25;4998635;28;20856;-83
2023/04/27 09:13:37;;;;;;;4.37;3.97;;;;;;;20.05;nan;99601.25;4989566;28;20471;-83
2023/04/27 09:16:02;;;;;;;5.33;4.83;;;;;;;20.11;nan;99601.44;4977985;28;20204;-84
2023/04/27 09:18:28;;;;;;;4.77;4.37;;;;;;;20.30;nan;99595.00;4976447;28;20462;-81
2023/04/27 09:20:54;;;;;;;5.90;4.63;;;;;;;20.57;nan;99589.66;4978332;28;20215;-83
2023/04/27 09:23:26;;;;;;;4.53;3.27;;;;;;;20.83;nan;99587.72;4978497;28;20212;-82
2023/04/27 09:25:54;;;;;;;4.33;3.97;;;;;;;20.97;nan;99584.38;4978134;28;20244;-83
2023/04/27 09:28:20;;;;;;;4.73;4.40;;;;;;;20.95;nan;99580.22;4978329;28;20467;-82
2023/04/27 09:30:57;;;;;;;6.30;4.30;;;;;;;20.95;nan;99586.41;4982215;28;20481;-82
2023/04/27 09:33:24;;;;;;;6.80;5.97;;;;;;;21.10;nan;99577.72;4973503;28;20646;-82
2023/04/27 09:35:50;;;;;;;7.00;4.90;;;;;;;21.24;nan;99573.56;4977502;28;20979;-82
2023/04/27 09:38:20;;;;;;;7.90;5.80;;;;;;;21.24;nan;99577.06;4977112;28;20567;-82
2023/04/27 09:40:46;;;;;;;5.60;4.80;;;;;;;21.15;nan;99580.75;4977785;28;20564;-82
2023/04/27 09:43:12;;;;;;;4.10;3.70;;;;;;;21.05;nan;99572.06;4980449;28;20496;-82
2023/04/27 09:45:38;;;;;;;7.90;4.30;;;;;;;20.99;nan;99571.72;4982545;28;21209;-82
2023/04/27 09:48:04;;;;;;;5.27;3.77;;;;;;;21.10;nan;99567.88;4985627;28;20476;-82
2023/04/27 09:50:34;;;;;;;5.13;3.50;;;;;;;21.23;nan;99559.38;4979483;28;20608;-81
2023/04/27 09:52:59;;;;;;;5.00;4.20;;;;;;;21.41;nan;99561.88;4983775;28;20727;-82
2023/04/27 09:55:35;;;;;;;3.27;2.97;;;;;;;21.57;nan;99556.50;4980761;28;20806;-83
2023/04/27 09:58:37;;;;;;;3.57;3.27;;;;;;;21.67;nan;99558.19;4984158;28;20223;-83
2023/04/27 10:01:28;;;;;;;2.90;2.57;;;;;;;21.64;nan;99554.00;4982588;28;20470;-82
2023/04/27 10:04:15;;;;;;;4.13;2.10;;;;;;;21.73;nan;99558.31;4984023;28;20481;-82
2023/04/27 10:06:58;;;;;;;2.67;2.00;;;;;;;21.61;nan;99551.69;4984599;28;20534;-82
2023/04/27 10:09:25;;;;;;;2.70;2.20;;;;;;;21.49;nan;99553.03;4984504;28;20942;-82
2023/04/27 10:11:53;;;;;;;2.00;1.70;;;;;;;21.55;nan;99557.69;4984999;28;20498;-82
2023/04/27 10:14:23;;;;;;;4.57;2.50;;;;;;;21.65;nan;99550.31;4983464;28;20443;-83
2023/04/27 10:16:58;;;;;;;2.50;2.30;;;;;;;21.71;nan;99557.69;4982958;28;20464;-82
2023/04/27 10:19:24;;;;;;;3.23;2.10;;;;;;;21.73;nan;99552.97;4982818;28;20546;-82
2023/04/27 10:22:04;;;;;;;2.27;1.73;;;;;;;21.72;nan;99556.66;4985616;28;20575;-83
2023/04/27 10:24:43;;;;;;;2.00;1.80;;;;;;;21.70;nan;99555.16;4988583;28;20697;-83
2023/04/27 10:27:10;;;;;;;1.80;1.60;;;;;;;21.62;nan;99550.66;4987113;28;20819;-83
2023/04/27 10:29:41;;;;;;;1.83;1.60;;;;;;;21.50;nan;99554.72;4989942;28;20598;-83
2023/04/27 10:32:07;;;;;;;1.53;1.30;;;;;;;21.45;nan;99549.88;4985161;28;20452;-83
2023/04/27 10:34:35;;;;;;;1.80;1.40;;;;;;;21.51;nan;99553.69;4983582;28;20441;-83
2023/04/27 10:37:09;;;;;;;1.90;1.60;;;;;;;21.51;nan;99543.84;4981572;28;20474;-83
2023/04/27 10:39:43;;;;;;;1.50;1.40;;;;;;;21.51;nan;99543.84;4982890;28;20517;-83
2023/04/27 10:42:10;;;;;;;1.30;1.20;;;;;;;21.43;nan;99550.00;4982337;28;20494;-84
2023/04/27 10:44:37;;;;;;;1.13;1.03;;;;;;;21.47;nan;99547.00;4986822;28;20744;-84
2023/04/27 10:47:14;;;;;;;1.30;1.20;;;;;;;21.65;nan;99535.09;4984353;28;20472;-84
2023/04/27 10:49:40;;;;;;;3.33;1.37;;;;;;;21.86;nan;99531.88;4983531;28;20492;-83
2023/04/27 10:52:05;;;;;;;1.50;1.40;;;;;;;22.12;nan;99532.63;4986339;28;21064;-84
2023/04/27 10:54:32;;;;;;;2.50;1.90;;;;;;;22.25;nan;99532.91;4986297;28;20194;-85
2023/04/27 10:57:09;;;;;;;1.60;1.50;;;;;;;22.30;nan;99534.09;4982406;28;20203;-84
2023/04/27 10:59:48;;;;;;;2.00;1.47;;;;;;;22.24;nan;99529.41;4983600;28;20621;-84
2023/04/27 11:02:14;;;;;;;2.63;1.60;;;;;;;22.15;nan;99532.28;4984861;28;20851;-83
2023/04/27 11:04:40;;;;;;;2.83;1.50;;;;;;;22.10;nan;99535.47;4986471;28;20984;-84
2023/04/27 11:07:09;;;;;;;1.60;1.50;;;;;;;22.09;nan;99528.47;4983541;28;20439;-84
2023/04/27 11:09:36;;;;;;;2.00;1.67;;;;;;;22.07;nan;99530.47;4982540;28;20495;-83
2023/04/27 11:12:06;;;;;;;2.10;1.57;;;;;;;22.00;nan;99529.50;4986460;28;20468;-83
2023/04/27 11:14:33;;;;;;;1.63;1.40;;;;;;;21.78;nan;99523.88;4984589;28;20499;-84
2023/04/27 11:16:59;;;;;;;1.47;1.13;;;;;;;21.72;nan;99510.38;4991479;28;20786;-84
2023/04/27 11:19:24;;;;;;;2.07;1.40;;;;;;;21.73;nan;99510.19;4992792;28;20538;-83
2023/04/27 11:21:50;;;;;;;1.60;1.50;;;;;;;21.73;nan;99507.53;4991731;28;20260;-83
2023/04/27 11:24:16;;;;;;;1.87;1.10;;;;;;;21.65;nan;99507.53;4989916;28;20565;-83
2023/04/27 11:26:41;;;;;;;1.73;1.50;;;;;;;21.56;nan;99505.91;4988000;28;20212;-83
2023/04/27 11:29:12;;;;;;;1.10;1.00;;;;;;;21.58;nan;99498.56;4990114;28;20472;-83
2023/04/27 11:31:48;;;;;;;1.60;1.40;;;;;;;21.62;nan;99508.72;4987904;28;20200;-84
2023/04/27 11:34:21;;;;;;;1.40;1.30;;;;;;;21.69;nan;99503.53;4990938;28;20477;-83
2023/04/27 11:37:02;;;;;;;1.30;1.20;;;;;;;21.62;nan;99506.03;4988198;28;20479;-84
2023/04/27 11:39:31;;;;;;;1.50;1.00;;;;;;;21.62;nan;99499.88;4992721;28;20465;-84
2023/04/27 11:41:56;;;;;;;1.93;1.50;;;;;;;21.72;nan;99491.66;4989044;28;20468;-83
2023/04/27 11:44:26;;;;;;;1.77;1.30;;;;;;;21.84;nan;99501.78;4986997;28;20496;-83
2023/04/27 11:46:52;;;;;;;1.53;1.40;;;;;;;21.90;nan;99497.63;4987163;28;20212;-83
2023/04/27 11:49:17;;;;;;;1.20;1.10;;;;;;;21.99;nan;99499.25;4992226;28;20439;-83